Time;durP1;ratioP1;P1;durP2;ratioP2;P2;SDS_P1;SDS_P2;PMS_P1;PMS_P2;Temp;Humidity;BMP_temperature;BMP_pressure;BME280_temperature;BME280_humidity;BME280_pressure;Samples;Min_cycle;Max_cycle;Signal;HPM_P1;HPM_P2
2024/01/10 00:01:34;;;;;;;;;;;;;;;-1.67;43.52;101840.88;4959885;28;7349;-73
2024/01/10 00:04:00;;;;;;;;;;;;;;;-1.68;43.72;101839.06;4958723;28;6991;-73
2024/01/10 00:06:25;;;;;;;;;;;;;;;-1.69;43.88;101828.13;4938501;28;7248;-73
2024/01/10 00:08:51;;;;;;;;;;;;;;;-1.70;43.52;101830.44;4960969;28;6772;-73
2024/01/10 00:11:17;;;;;;;;;;;;;;;-1.72;44.08;101834.41;4948475;28;7837;-73
2024/01/10 00:13:42;;;;;;;;;;;;;;;-1.74;43.80;101828.25;4965880;28;7258;-73
2024/01/10 00:16:08;;;;;;;;;;;;;;;-1.77;43.56;101828.81;4959535;28;7009;-73
2024/01/10 00:18:34;;;;;;;;;;;;;;;-1.79;43.96;101830.22;4960047;28;6780;-73
2024/01/10 00:21:00;;;;;;;;;;;;;;;-1.81;43.89;101829.16;4959866;28;7628;-73
2024/01/10 00:23:26;;;;;;;;;;;;;;;-1.82;43.91;101835.81;4959954;28;6940;-73
2024/01/10 00:25:51;;;;;;;;;;;;;;;-1.84;44.16;101823.75;4959647;28;6816;-73
2024/01/10 00:28:17;;;;;;;;;;;;;;;-1.85;43.97;101820.34;4961629;28;6777;-73
2024/01/10 00:30:44;;;;;;;;;;;;;;;-1.85;44.41;101816.94;4959798;28;6804;-72
2024/01/10 00:33:11;;;;;;;;;;;;;;;-1.87;44.50;101819.25;4943763;28;7354;-73
2024/01/10 00:35:37;;;;;;;;;;;;;;;-1.89;44.28;101813.16;4958128;28;6784;-73
2024/01/10 00:38:03;;;;;;;;;;;;;;;-1.88;44.28;101824.13;4958016;28;7305;-73
2024/01/10 00:40:28;;;;;;;;;;;;;;;-1.89;44.51;101825.72;4962174;28;6776;-74
2024/01/10 00:42:54;;;;;;;;;;;;;;;-1.89;44.02;101812.25;4958831;28;6808;-73
2024/01/10 00:45:20;;;;;;;;;;;;;;;-1.91;44.41;101812.09;4960874;28;6788;-73
2024/01/10 00:47:48;;;;;;;;;;;;;;;-1.92;44.39;101812.78;4958891;28;7119;-73
2024/01/10 00:50:13;;;;;;;;;;;;;;;-1.93;44.13;101821.06;4958235;28;6989;-73
2024/01/10 00:52:39;;;;;;;;;;;;;;;-1.97;43.94;101814.75;4971638;28;7027;-73
2024/01/10 00:55:05;;;;;;;;;;;;;;;-1.97;44.75;101813.84;4957890;28;7145;-72
2024/01/10 00:57:31;;;;;;;;;;;;;;;-1.98;44.48;101814.56;4958660;28;7202;-73
2024/01/10 00:59:56;;;;;;;;;;;;;;;-1.99;44.76;101817.78;4959549;28;6800;-73
2024/01/10 01:02:22;;;;;;;;;;;;;;;-2.00;44.74;101814.38;4942211;28;6926;-73
2024/01/10 01:04:48;;;;;;;;;;;;;;;-2.01;44.97;101809.16;4938232;28;7035;-73
2024/01/10 01:07:13;;;;;;;;;;;;;;;-2.01;44.65;101807.53;4955160;28;6821;-73
2024/01/10 01:09:39;;;;;;;;;;;;;;;-2.01;45.15;101802.50;4941588;28;6776;-73
2024/01/10 01:12:05;;;;;;;;;;;;;;;-2.03;44.63;101803.94;4943369;28;6800;-72
2024/01/10 01:14:30;;;;;;;;;;;;;;;-2.01;45.09;101806.66;4959469;28;7031;-71
2024/01/10 01:16:56;;;;;;;;;;;;;;;-1.99;45.18;101810.25;4957279;28;6784;-71
2024/01/10 01:19:22;;;;;;;;;;;;;;;-2.00;45.16;101810.97;4959258;28;6827;-71
2024/01/10 01:21:47;;;;;;;;;;;;;;;-2.01;45.37;101810.06;4962972;28;7046;-74
2024/01/10 01:24:13;;;;;;;;;;;;;;;-2.00;44.81;101803.44;4940758;28;7031;-72
2024/01/10 01:26:38;;;;;;;;;;;;;;;-1.99;45.31;101805.22;4956342;28;6861;-70
2024/01/10 01:29:04;;;;;;;;;;;;;;;-1.99;44.98;101810.25;4961075;28;6760;-71
2024/01/10 01:31:30;;;;;;;;;;;;;;;-1.99;44.75;101810.25;4959572;28;6934;-73
2024/01/10 01:33:55;;;;;;;;;;;;;;;-2.00;44.82;101811.84;4958604;28;6768;-72
2024/01/10 01:36:21;;;;;;;;;;;;;;;-2.02;44.81;101802.34;4956336;28;6868;-74
2024/01/10 01:38:46;;;;;;;;;;;;;;;-2.01;45.28;101807.53;4947617;28;7471;-71
2024/01/10 01:41:14;;;;;;;;;;;;;;;-2.04;44.58;101803.75;4953500;28;6965;-72
2024/01/10 01:43:40;;;;;;;;;;;;;;;-2.04;44.75;101801.25;4963350;28;6808;-70
2024/01/10 01:46:07;;;;;;;;;;;;;;;-2.06;45.57;101802.69;4963378;28;6772;-72
2024/01/10 01:48:34;;;;;;;;;;;;;;;-2.07;45.59;101796.78;4968737;28;6964;-73
2024/01/10 01:51:05;;;;;;;;;;;;;;;-2.10;45.05;101793.88;4947507;28;7218;-73
2024/01/10 01:53:33;;;;;;;;;;;;;;;-2.12;44.97;101793.69;4948280;28;6999;-71
2024/01/10 01:56:05;;;;;;;;;;;;;;;-2.11;44.97;101800.53;4953353;28;7009;-70
2024/01/10 01:58:31;;;;;;;;;;;;;;;-2.13;44.85;101791.00;4965989;28;6816;-71
2024/01/10 02:00:57;;;;;;;;;;;;;;;-2.13;45.11;101793.50;4962366;28;6936;-70
2024/01/10 02:03:23;;;;;;;;;;;;;;;-2.15;45.69;101793.31;4963942;28;6800;-69
2024/01/10 02:05:49;;;;;;;;;;;;;;;-2.14;45.17;101796.72;4963418;28;6796;-71
2024/01/10 02:08:15;;;;;;;;;;;;;;;-2.15;45.91;101797.44;4964982;28;8067;-71
2024/01/10 02:10:41;;;;;;;;;;;;;;;-2.17;45.95;101793.81;4964494;28;6985;-71
2024/01/10 02:13:08;;;;;;;;;;;;;;;-2.20;45.18;101789.34;4959518;28;6760;-73
2024/01/10 02:15:35;;;;;;;;;;;;;;;-2.22;45.56;101797.41;4958404;28;6859;-72
2024/01/10 02:18:01;;;;;;;;;;;;;;;-2.26;45.96;101789.50;4961374;28;6851;-72
2024/01/10 02:20:27;;;;;;;;;;;;;;;-2.28;45.82;101785.00;4976775;28;6979;-73
2024/01/10 02:22:52;;;;;;;;;;;;;;;-2.30;45.26;101791.47;4961082;28;6780;-75
2024/01/10 02:25:18;;;;;;;;;;;;;;;-2.34;46.16;101789.28;4963011;28;6852;-73
2024/01/10 02:27:44;;;;;;;;;;;;;;;-2.36;45.89;101786.59;4943970;28;6979;-75
2024/01/10 02:30:11;;;;;;;;;;;;;;;-2.38;45.66;101790.50;4960457;28;7311;-75
2024/01/10 02:32:37;;;;;;;;;;;;;;;-2.42;45.32;101786.72;4962454;28;6796;-75
2024/01/10 02:35:04;;;;;;;;;;;;;;;-2.46;45.66;101781.13;4951046;28;6781;-74
2024/01/10 02:37:29;;;;;;;;;;;;;;;-2.48;45.75;101780.06;4961126;28;6785;-75
2024/01/10 02:39:55;;;;;;;;;;;;;;;-2.52;45.65;101777.19;4961978;28;6795;-72
2024/01/10 02:42:21;;;;;;;;;;;;;;;-2.52;46.24;101773.75;4961040;28;6943;-75
2024/01/10 02:44:46;;;;;;;;;;;;;;;-2.56;45.37;101764.97;4959517;28;6809;-73
2024/01/10 02:47:12;;;;;;;;;;;;;;;-2.58;45.62;101768.00;4962947;28;6764;-75
2024/01/10 02:49:38;;;;;;;;;;;;;;;-2.60;46.20;101770.31;4958785;28;6840;-74
2024/01/10 02:52:04;;;;;;;;;;;;;;;-2.64;45.68;101770.66;4961660;28;6784;-76
2024/01/10 02:54:30;;;;;;;;;;;;;;;-2.67;45.68;101768.66;4961182;28;7291;-75
2024/01/10 02:56:55;;;;;;;;;;;;;;;-2.69;45.86;101769.19;4962517;28;6760;-75
2024/01/10 02:59:21;;;;;;;;;;;;;;;-2.74;46.05;101763.59;4961966;28;6784;-74
2024/01/10 03:01:46;;;;;;;;;;;;;;;-2.77;46.22;101767.34;4945723;28;7561;-75
2024/01/10 03:04:12;;;;;;;;;;;;;;;-2.81;46.23;101756.00;4961585;28;6784;-75
2024/01/10 03:06:38;;;;;;;;;;;;;;;-2.83;46.40;101767.47;4958539;28;6757;-76
2024/01/10 03:09:03;;;;;;;;;;;;;;;-2.86;46.27;101768.00;4976073;28;6852;-74
2024/01/10 03:11:30;;;;;;;;;;;;;;;-2.87;46.27;101763.69;4945059;28;6952;-76
2024/01/10 03:14:09;;;;;;;;;;;;;;;-2.89;46.64;101756.69;4950674;28;7023;-73
2024/01/10 03:16:35;;;;;;;;;;;;;;;-2.92;46.71;101759.72;4963173;28;6757;-76
2024/01/10 03:19:01;;;;;;;;;;;;;;;-2.93;46.14;101767.97;4960567;28;6776;-75
2024/01/10 03:21:27;;;;;;;;;;;;;;;-2.94;46.11;101768.69;4961645;28;6780;-75
2024/01/10 03:23:57;;;;;;;;;;;;;;;-2.96;46.29;101760.94;4959588;28;7181;-75
2024/01/10 03:26:27;;;;;;;;;;;;;;;-2.97;46.73;101751.63;4943950;28;6989;-75
2024/01/10 03:28:53;;;;;;;;;;;;;;;-2.96;46.66;101757.53;4946311;28;7208;-76
2024/01/10 03:31:20;;;;;;;;;;;;;;;-2.95;46.60;101755.22;4944007;28;7270;-76
2024/01/10 03:33:45;;;;;;;;;;;;;;;-2.95;47.20;101755.22;4954288;28;7286;-75
2024/01/10 03:36:15;;;;;;;;;;;;;;;-2.93;46.42;101755.41;4960598;28;6936;-75
2024/01/10 03:38:40;;;;;;;;;;;;;;;-2.93;47.23;101750.41;4943915;28;7300;-74
2024/01/10 03:41:06;;;;;;;;;;;;;;;-2.95;46.95;101745.19;4959517;28;6983;-74
2024/01/10 03:43:32;;;;;;;;;;;;;;;-2.97;46.52;101744.09;4960775;28;7009;-75
2024/01/10 03:45:58;;;;;;;;;;;;;;;-2.98;47.28;101747.31;4942463;28;7257;-76
2024/01/10 03:48:23;;;;;;;;;;;;;;;-2.97;46.37;101743.19;4958214;28;7134;-76
2024/01/10 03:50:49;;;;;;;;;;;;;;;-2.98;46.62;101736.38;4960444;28;6784;-72
2024/01/10 03:53:15;;;;;;;;;;;;;;;-2.98;46.96;101738.88;4971941;28;6784;-75
2024/01/10 03:55:41;;;;;;;;;;;;;;;-2.98;47.26;101738.88;4945464;28;6785;-75
2024/01/10 03:58:07;;;;;;;;;;;;;;;-2.98;47.19;101739.81;4959064;28;6784;-75
2024/01/10 04:00:32;;;;;;;;;;;;;;;-2.97;46.87;101734.06;4959177;28;6761;-76
2024/01/10 04:02:58;;;;;;;;;;;;;;;-2.94;47.46;101739.44;4944349;28;7167;-76
2024/01/10 04:05:25;;;;;;;;;;;;;;;-2.92;47.49;101729.63;4961193;28;7680;-76
2024/01/10 04:07:51;;;;;;;;;;;;;;;-2.89;47.82;101724.09;4960888;28;6795;-78
2024/01/10 04:10:17;;;;;;;;;;;;;;;-2.86;47.58;101721.94;4944367;28;6788;-74
2024/01/10 04:12:44;;;;;;;;;;;;;;;-2.83;47.28;101729.84;4959704;28;7130;-76
2024/01/10 04:15:11;;;;;;;;;;;;;;;-2.80;47.96;101723.59;4959190;28;7378;-76
2024/01/10 04:17:37;;;;;;;;;;;;;;;-2.76;47.71;101724.88;4962260;28;7050;-74
2024/01/10 04:20:04;;;;;;;;;;;;;;;-2.73;47.29;101737.78;4940122;28;6860;-74
2024/01/10 04:22:31;;;;;;;;;;;;;;;-2.70;47.89;101735.66;4946591;28;6808;-76
2024/01/10 04:25:01;;;;;;;;;;;;;;;-2.68;47.63;101736.75;4946415;28;6784;-77
2024/01/10 04:27:27;;;;;;;;;;;;;;;-2.67;47.34;101733.53;4958200;28;6808;-76
2024/01/10 04:29:53;;;;;;;;;;;;;;;-2.66;47.64;101739.41;4957382;28;6772;-76
2024/01/10 04:32:20;;;;;;;;;;;;;;;-2.68;47.23;101731.72;4940437;28;7227;-75
2024/01/10 04:34:45;;;;;;;;;;;;;;;-2.69;47.50;101729.94;4959288;28;6856;-75
2024/01/10 04:37:11;;;;;;;;;;;;;;;-2.70;47.20;101729.72;4940485;28;6963;-76
2024/01/10 04:39:40;;;;;;;;;;;;;;;-2.73;47.24;101717.69;4958137;28;6824;-76
2024/01/10 04:42:07;;;;;;;;;;;;;;;-2.72;46.84;101721.13;4958370;28;6812;-74
2024/01/10 04:44:32;;;;;;;;;;;;;;;-2.73;47.37;101717.69;4946504;28;6867;-74
2024/01/10 04:46:58;;;;;;;;;;;;;;;-2.73;47.70;101714.31;4954851;28;6764;-73
2024/01/10 04:49:23;;;;;;;;;;;;;;;-2.72;47.24;101723.63;4952956;28;7535;-74
2024/01/10 04:51:49;;;;;;;;;;;;;;;-2.73;47.00;101717.69;4940483;28;7230;-74
2024/01/10 04:54:15;;;;;;;;;;;;;;;-2.72;47.23;101718.63;4958097;28;6859;-74
2024/01/10 04:56:41;;;;;;;;;;;;;;;-2.73;47.41;101717.69;4958198;28;7845;-73
2024/01/10 04:59:07;;;;;;;;;;;;;;;-2.73;47.07;101717.69;4958044;28;6777;-73
2024/01/10 05:01:32;;;;;;;;;;;;;;;-2.74;47.20;101725.94;4956288;28;6975;-74
2024/01/10 05:03:58;;;;;;;;;;;;;;;-2.74;47.07;101725.06;4957171;28;6791;-74
2024/01/10 05:06:24;;;;;;;;;;;;;;;-2.75;47.03;101723.22;4962641;28;7287;-74
2024/01/10 05:08:50;;;;;;;;;;;;;;;-2.75;47.10;101724.16;4940140;28;6760;-74
2024/01/10 05:11:16;;;;;;;;;;;;;;;-2.76;47.28;101729.88;4968412;28;6958;-74
2024/01/10 05:13:43;;;;;;;;;;;;;;;-2.77;47.61;101724.66;4950239;28;7333;-74
2024/01/10 05:16:09;;;;;;;;;;;;;;;-2.77;47.87;101730.59;4957893;28;6788;-74
2024/01/10 05:18:35;;;;;;;;;;;;;;;-2.75;47.83;101718.22;4957291;28;6816;-74
2024/01/10 05:21:01;;;;;;;;;;;;;;;-2.74;47.27;101727.56;4941604;28;6957;-73
2024/01/10 05:23:27;;;;;;;;;;;;;;;-2.75;47.40;101719.13;4958580;28;6796;-74
2024/01/10 05:25:53;;;;;;;;;;;;;;;-2.73;47.09;101724.34;4936305;28;8403;-73
2024/01/10 05:28:19;;;;;;;;;;;;;;;-2.75;47.27;101721.63;4975203;28;8018;-74
2024/01/10 05:30:45;;;;;;;;;;;;;;;-2.76;47.64;101722.34;4957301;28;7225;-74
2024/01/10 05:33:11;;;;;;;;;;;;;;;-2.77;47.33;101718.06;4955837;28;7221;-74
2024/01/10 05:35:38;;;;;;;;;;;;;;;-2.79;47.63;101719.47;4949500;28;7007;-74
2024/01/10 05:38:04;;;;;;;;;;;;;;;-2.81;46.91;101718.38;4957983;28;6796;-73
2024/01/10 05:40:31;;;;;;;;;;;;;;;-2.82;47.08;101717.47;4936269;28;6942;-73
2024/01/10 05:43:01;;;;;;;;;;;;;;;-2.83;47.31;101713.19;4933917;28;8360;-74
2024/01/10 05:45:28;;;;;;;;;;;;;;;-2.84;47.17;101715.50;4961625;28;7002;-73
2024/01/10 05:47:54;;;;;;;;;;;;;;;-2.85;47.44;101716.22;4942751;28;6800;-74
2024/01/10 05:50:20;;;;;;;;;;;;;;;-2.86;47.08;101724.44;4957845;28;6937;-74
2024/01/10 05:52:47;;;;;;;;;;;;;;;-2.88;47.44;101724.25;4958744;28;6801;-73
2024/01/10 05:55:12;;;;;;;;;;;;;;;-2.88;47.07;101728.38;4948536;28;7418;-73
2024/01/10 05:57:38;;;;;;;;;;;;;;;-2.89;47.91;101721.56;4959600;28;8302;-73
2024/01/10 06:00:09;;;;;;;;;;;;;;;-2.90;46.98;101725.69;4954229;28;6796;-73
2024/01/10 06:02:39;;;;;;;;;;;;;;;-2.90;47.40;101720.66;4948012;28;11697;-74
2024/01/10 06:05:13;;;;;;;;;;;;;;;-2.89;47.38;101729.09;4945988;28;6789;-73
2024/01/10 06:07:41;;;;;;;;;;;;;;;-2.89;47.40;101724.09;4977301;28;7007;-73
2024/01/10 06:10:07;;;;;;;;;;;;;;;-2.90;47.35;101719.75;4938421;28;6845;-74
2024/01/10 06:12:33;;;;;;;;;;;;;;;-2.90;47.75;101717.22;4961601;28;7266;-73
2024/01/10 06:14:58;;;;;;;;;;;;;;;-2.90;47.53;101717.22;4938102;28;7170;-73
2024/01/10 06:17:24;;;;;;;;;;;;;;;-2.89;47.69;101714.03;4957704;28;6957;-73
2024/01/10 06:19:50;;;;;;;;;;;;;;;-2.89;48.07;101704.00;4956895;28;6902;-73
2024/01/10 06:22:17;;;;;;;;;;;;;;;-2.87;47.91;101707.59;4959834;28;7046;-73
2024/01/10 06:24:43;;;;;;;;;;;;;;;-2.84;48.39;101707.97;4959563;28;6844;-73
2024/01/10 06:27:09;;;;;;;;;;;;;;;-2.82;47.87;101709.03;4959481;28;7126;-73
2024/01/10 06:29:36;;;;;;;;;;;;;;;-2.79;47.59;101709.44;4945622;28;6999;-73
2024/01/10 06:32:03;;;;;;;;;;;;;;;-2.78;48.26;101713.75;4942061;28;6988;-74
2024/01/10 06:34:29;;;;;;;;;;;;;;;-2.79;47.67;101702.78;4959807;28;6997;-74
2024/01/10 06:36:55;;;;;;;;;;;;;;;-2.79;47.36;101700.28;4983892;28;7229;-73
2024/01/10 06:39:20;;;;;;;;;;;;;;;-2.78;48.10;101696.19;4962343;28;7530;-73
2024/01/10 06:41:47;;;;;;;;;;;;;;;-2.77;47.77;101690.44;4962417;28;7007;-74
2024/01/10 06:44:13;;;;;;;;;;;;;;;-2.76;47.99;101696.34;4955026;28;6983;-74
2024/01/10 06:46:39;;;;;;;;;;;;;;;-2.77;47.97;101695.47;4973611;28;7045;-74
2024/01/10 06:49:04;;;;;;;;;;;;;;;-2.74;48.09;101702.47;4961518;28;7865;-73
2024/01/10 06:51:31;;;;;;;;;;;;;;;-2.73;48.16;101704.28;4959212;28;6791;-73
2024/01/10 06:54:03;;;;;;;;;;;;;;;-2.72;48.31;101706.94;4962428;28;8494;-74
2024/01/10 06:56:32;;;;;;;;;;;;;;;-2.71;47.79;101700.31;4966273;28;6987;-74
2024/01/10 06:59:00;;;;;;;;;;;;;;;-2.71;48.17;101700.31;4943952;28;7055;-74
2024/01/10 07:01:26;;;;;;;;;;;;;;;-2.71;48.41;101700.31;4960144;28;6785;-74
2024/01/10 07:03:54;;;;;;;;;;;;;;;-2.71;47.80;101701.22;4961931;28;6888;-74
2024/01/10 07:06:21;;;;;;;;;;;;;;;-2.70;47.88;101700.53;4959514;28;6852;-74
2024/01/10 07:08:49;;;;;;;;;;;;;;;-2.69;48.63;101708.94;4962957;28;6879;-74
2024/01/10 07:11:21;;;;;;;;;;;;;;;-2.69;48.18;101703.91;4949700;28;7166;-74
2024/01/10 07:13:47;;;;;;;;;;;;;;;-2.68;48.07;101716.66;4962469;28;7282;-74
2024/01/10 07:16:15;;;;;;;;;;;;;;;-2.69;48.05;101714.88;4963076;28;6820;-74
2024/01/10 07:18:41;;;;;;;;;;;;;;;-2.69;47.88;101712.38;4961190;28;7122;-73
2024/01/10 07:21:09;;;;;;;;;;;;;;;-2.69;48.54;101717.38;4950523;28;6772;-74
2024/01/10 07:23:35;;;;;;;;;;;;;;;-2.70;48.41;101718.09;4962397;28;6804;-73
2024/01/10 07:26:01;;;;;;;;;;;;;;;-2.70;48.09;101714.66;4967476;28;7210;-74
2024/01/10 07:28:26;;;;;;;;;;;;;;;-2.70;47.95;101723.13;4961823;28;6946;-74
2024/01/10 07:30:52;;;;;;;;;;;;;;;-2.71;48.08;101716.28;4961795;28;8141;-74
2024/01/10 07:33:18;;;;;;;;;;;;;;;-2.70;48.38;101718.09;4945599;28;7267;-74
2024/01/10 07:35:43;;;;;;;;;;;;;;;-2.71;48.35;101725.44;4958004;28;7127;-74
2024/01/10 07:38:09;;;;;;;;;;;;;;;-2.71;48.09;101725.44;4952244;28;8822;-74
2024/01/10 07:40:36;;;;;;;;;;;;;;;-2.70;48.21;101722.19;4960884;28;6800;-73
2024/01/10 07:43:02;;;;;;;;;;;;;;;-2.71;48.49;101728.81;4934720;28;7009;-73
2024/01/10 07:45:28;;;;;;;;;;;;;;;-2.70;48.46;101729.72;4948344;28;7293;-73
2024/01/10 07:47:54;;;;;;;;;;;;;;;-2.71;48.03;101728.81;4944263;28;7468;-73
2024/01/10 07:50:20;;;;;;;;;;;;;;;-2.69;48.46;101731.53;4959761;28;6878;-73
2024/01/10 07:52:46;;;;;;;;;;;;;;;-2.69;47.94;101724.91;4974273;28;7845;-73
2024/01/10 07:55:12;;;;;;;;;;;;;;;-2.69;48.08;101732.44;4946986;28;6829;-74
2024/01/10 07:57:38;;;;;;;;;;;;;;;-2.68;48.59;101733.31;4975262;28;6784;-75
2024/01/10 08:00:13;;;;;;;;;;;;;;;-2.66;47.92;101739.41;4943276;28;6863;-74
2024/01/10 08:02:39;;;;;;;;;;;;;;;-2.66;48.24;101740.34;4955931;28;11810;-74
2024/01/10 08:05:05;;;;;;;;;;;;;;;-2.65;48.26;101739.63;4957454;28;6852;-74
2024/01/10 08:07:37;;;;;;;;;;;;;;;-2.63;48.53;101734.81;4960104;28;7004;-74
2024/01/10 08:10:10;;;;;;;;;;;;;;;-2.61;48.67;101739.97;4943657;28;7001;-74
2024/01/10 08:12:41;;;;;;;;;;;;;;;-2.58;49.25;101743.78;4960534;28;6968;-74
2024/01/10 08:15:07;;;;;;;;;;;;;;;-2.55;48.87;101748.28;4945115;28;6971;-74
2024/01/10 08:17:33;;;;;;;;;;;;;;;-2.51;49.02;101753.88;4959403;28;7022;-74
2024/01/10 08:20:00;;;;;;;;;;;;;;;-2.48;48.87;101747.41;4954892;28;7820;-74
2024/01/10 08:22:26;;;;;;;;;;;;;;;-2.44;49.24;101747.97;4958058;28;6973;-74
2024/01/10 08:24:52;;;;;;;;;;;;;;;-2.40;48.61;101742.63;4960178;28;7270;-74
2024/01/10 08:27:17;;;;;;;;;;;;;;;-2.35;48.54;101744.78;4962863;28;6887;-74
2024/01/10 08:29:44;;;;;;;;;;;;;;;-2.31;49.45;101746.97;4960430;28;6859;-74
2024/01/10 08:32:10;;;;;;;;;;;;;;;-2.27;49.50;101749.13;4960356;28;6852;-74
2024/01/10 08:34:36;;;;;;;;;;;;;;;-2.21;48.86;101741.44;4960726;28;7851;-75
2024/01/10 08:37:02;;;;;;;;;;;;;;;-2.18;48.67;101742.69;4962036;28;8225;-74
2024/01/10 08:39:30;;;;;;;;;;;;;;;-2.13;49.02;101740.75;4958537;28;6811;-74
2024/01/10 08:41:58;;;;;;;;;;;;;;;-2.07;49.17;101738.97;4975138;28;6828;-74
2024/01/10 08:44:24;;;;;;;;;;;;;;;-2.01;48.76;101736.28;4959914;28;6785;-74
2024/01/10 08:46:53;;;;;;;;;;;;;;;-1.97;49.38;101743.47;4960603;28;6780;-74
2024/01/10 08:49:18;;;;;;;;;;;;;;;-1.93;48.46;101743.16;4949251;28;7035;-74
2024/01/10 08:51:46;;;;;;;;;;;;;;;-1.89;49.25;101742.78;4937562;28;6988;-74
2024/01/10 08:54:19;;;;;;;;;;;;;;;-1.83;48.46;101751.06;4959130;28;6804;-74
2024/01/10 08:56:48;;;;;;;;;;;;;;;-1.79;49.00;101752.28;4959738;28;6808;-74
2024/01/10 08:59:14;;;;;;;;;;;;;;;-1.74;49.20;101750.34;4948290;28;6990;-74
2024/01/10 09:01:40;;;;;;;;;;;;;;;-1.72;49.27;101754.84;4939854;28;7244;-74
2024/01/10 09:04:06;;;;;;;;;;;;;;;-1.68;48.92;101749.47;4942878;28;7035;-74
2024/01/10 09:06:35;;;;;;;;;;;;;;;-1.63;49.00;101761.69;4954101;28;10255;-74
2024/01/10 09:09:02;;;;;;;;;;;;;;;-1.60;49.03;101762.03;4941832;28;7069;-74
2024/01/10 09:11:28;;;;;;;;;;;;;;;-1.56;48.45;101760.06;4959675;28;7232;-74
2024/01/10 09:13:53;;;;;;;;;;;;;;;-1.50;48.88;101754.84;4976046;28;6938;-74
2024/01/10 09:16:19;;;;;;;;;;;;;;;-1.46;48.72;101762.06;4975324;28;6874;-74
2024/01/10 09:18:45;;;;;;;;;;;;;;;-1.41;48.45;101767.63;4959048;28;6792;-75
2024/01/10 09:21:11;;;;;;;;;;;;;;;-1.37;48.54;101769.78;4965929;28;7084;-74
2024/01/10 09:23:36;;;;;;;;;;;;;;;-1.33;48.80;101759.38;4940892;28;7206;-75
2024/01/10 09:26:02;;;;;;;;;;;;;;;-1.30;48.55;101759.72;4958748;28;7809;-75
2024/01/10 09:28:28;;;;;;;;;;;;;;;-1.28;48.40;101748.22;4956768;28;6951;-75
2024/01/10 09:30:54;;;;;;;;;;;;;;;-1.25;48.41;101755.25;4942824;28;6856;-74
2024/01/10 09:33:20;;;;;;;;;;;;;;;-1.23;47.89;101755.44;4959434;28;6768;-75
2024/01/10 09:35:45;;;;;;;;;;;;;;;-1.20;48.14;101755.78;4960079;28;7301;-74
2024/01/10 09:38:11;;;;;;;;;;;;;;;-1.16;47.82;101757.91;4939676;28;6776;-74
2024/01/10 09:40:37;;;;;;;;;;;;;;;-1.14;48.26;101757.38;4957791;28;7923;-74
2024/01/10 09:43:05;;;;;;;;;;;;;;;-1.09;48.05;101757.91;4944435;28;6967;-74
2024/01/10 09:45:35;;;;;;;;;;;;;;;-1.04;48.05;101758.44;4957357;28;6784;-74
2024/01/10 09:48:01;;;;;;;;;;;;;;;-0.99;48.09;101760.78;4944241;28;6827;-75
2024/01/10 09:50:27;;;;;;;;;;;;;;;-0.93;47.90;101754.69;4958425;28;7216;-74
2024/01/10 09:53:04;;;;;;;;;;;;;;;-0.87;48.09;101760.41;4945357;28;7293;-75
2024/01/10 09:55:36;;;;;;;;;;;;;;;-0.79;47.50;101766.34;4964757;28;7166;-74
2024/01/10 09:58:05;;;;;;;;;;;;;;;-0.72;47.89;101761.31;4959854;28;7270;-74
2024/01/10 10:00:33;;;;;;;;;;;;;;;-0.64;47.70;101764.69;4951634;28;7802;-75
2024/01/10 10:03:04;;;;;;;;;;;;;;;-0.52;47.68;101762.69;4960927;28;6788;-75
2024/01/10 10:05:29;;;;;;;;;;;;;;;-0.42;47.56;101765.53;4950201;28;6804;-74
2024/01/10 10:07:55;;;;;;;;;;;;;;;-0.31;47.57;101764.22;4954452;28;7253;-74
2024/01/10 10:10:21;;;;;;;;;;;;;;;-0.23;47.53;101768.50;4963144;28;6791;-75
2024/01/10 10:12:54;;;;;;;;;;;;;;;-0.18;47.37;101764.91;4960663;28;7721;-75
2024/01/10 10:15:27;;;;;;;;;;;;;;;-0.13;47.34;101762.91;4958906;28;7205;-74
2024/01/10 10:17:54;;;;;;;;;;;;;;;-0.09;47.18;101764.16;4967027;28;8508;-75
2024/01/10 10:20:28;;;;;;;;;;;;;;;-0.09;47.04;101754.94;4959753;28;7599;-75
2024/01/10 10:23:10;;;;;;;;;;;;;;;-0.06;46.94;101761.97;4950613;28;6971;-75
2024/01/10 10:25:47;;;;;;;;;;;;;;;-0.04;46.84;101752.94;4966095;28;7091;-74
2024/01/10 10:28:13;;;;;;;;;;;;;;;-0.01;47.05;101756.69;4946956;28;6816;-75
2024/01/10 10:30:38;;;;;;;;;;;;;;;0.07;46.82;101764.25;4959192;28;6856;-75
2024/01/10 10:33:09;;;;;;;;;;;;;;;0.15;47.12;101755.00;4959755;28;6776;-74
2024/01/10 10:35:35;;;;;;;;;;;;;;;0.23;46.88;101759.28;4962012;28;6796;-75
2024/01/10 10:38:00;;;;;;;;;;;;;;;0.29;46.70;101757.44;4957326;28;6784;-74
2024/01/10 10:40:26;;;;;;;;;;;;;;;0.36;46.27;101756.50;4960620;28;6799;-75
2024/01/10 10:42:56;;;;;;;;;;;;;;;0.40;46.08;101741.88;4962469;28;6851;-74
2024/01/10 10:45:26;;;;;;;;;;;;;;;0.47;46.26;101745.06;4961572;28;6804;-75
2024/01/10 10:48:01;;;;;;;;;;;;;;;0.55;46.14;101751.84;4958447;28;6981;-75
2024/01/10 10:50:36;;;;;;;;;;;;;;;0.68;45.86;101746.50;4945252;28;7854;-75
2024/01/10 10:53:03;;;;;;;;;;;;;;;0.83;46.09;101739.72;4960022;28;6864;-75
2024/01/10 10:55:31;;;;;;;;;;;;;;;1.02;45.57;101739.19;4976418;28;6995;-75
2024/01/10 10:57:58;;;;;;;;;;;;;;;1.15;45.44;101737.22;4954404;28;7661;-74
2024/01/10 11:00:27;;;;;;;;;;;;;;;1.28;44.96;101741.09;4947825;28;7064;-74
2024/01/10 11:02:57;;;;;;;;;;;;;;;1.36;44.86;101736.13;4976835;28;7163;-75
2024/01/10 11:05:24;;;;;;;;;;;;;;;1.46;44.92;101737.09;4961543;28;6800;-75
2024/01/10 11:07:52;;;;;;;;;;;;;;;1.58;44.64;101740.91;4960848;28;6799;-75
2024/01/10 11:10:27;;;;;;;;;;;;;;;1.70;44.36;101748.91;4957504;28;6804;-75
2024/01/10 11:13:17;;;;;;;;;;;;;;;1.96;44.15;101743.16;4951139;28;6800;-74
2024/01/10 11:16:47;;;;;;;;;;;;;;;2.38;44.15;101742.38;4959896;28;6852;-75
2024/01/10 11:19:58;;;;;;;;;;;;;;;2.77;43.95;101728.53;4960429;28;6808;-75
2024/01/10 11:23:00;;;;;;;;;;;;;;;3.12;42.91;101727.75;4961077;28;6816;-75
2024/01/10 11:25:29;;;;;;;;;;;;;;;3.37;42.25;101725.09;4956715;28;6828;-75
2024/01/10 11:27:55;;;;;;;;;;;;;;;3.54;41.92;101726.75;4936129;28;7339;-75
2024/01/10 11:30:56;;;;;;;;;;;;;;;3.62;42.05;101725.84;4940621;28;6864;-75
2024/01/10 11:33:23;;;;;;;;;;;;;;;3.66;41.25;101727.94;4971787;28;6846;-75
2024/01/10 11:36:14;;;;;;;;;;;;;;;3.76;41.14;101714.53;4958162;28;6812;-75
2024/01/10 11:38:51;;;;;;;;;;;;;;;3.85;41.09;101704.34;4961430;28;6784;-75
2024/01/10 11:41:28;;;;;;;;;;;;;;;3.79;41.12;101711.41;4960583;28;6832;-73
2024/01/10 11:44:08;;;;;;;;;;;;;;;3.63;40.22;101707.38;4961322;28;6989;-72
2024/01/10 11:46:35;;;;;;;;;;;;;;;3.46;40.00;101708.25;4962005;28;7036;-72
2024/01/10 11:49:00;;;;;;;;;;;;;;;3.31;39.90;101706.00;4958355;28;7126;-71
2024/01/10 11:51:26;;;;;;;;;;;;;;;3.17;40.74;101707.19;4944807;28;7252;-72
2024/01/10 11:53:53;;;;;;;;;;;;;;;3.07;39.63;101704.47;4963590;28;6776;-72
2024/01/10 11:56:19;;;;;;;;;;;;;;;2.94;40.09;101706.53;4960379;28;6815;-72
2024/01/10 11:59:05;;;;;;;;;;;;;;;2.76;40.26;101704.88;4961126;28;6819;-71
2024/01/10 12:01:32;;;;;;;;;;;;;;;2.61;39.48;101709.28;4949388;28;7071;-71
2024/01/10 12:03:58;;;;;;;;;;;;;;;2.50;40.25;101705.66;4963248;28;6796;-72
2024/01/10 12:06:25;;;;;;;;;;;;;;;2.42;40.21;101711.56;4958744;28;6764;-73
2024/01/10 12:08:51;;;;;;;;;;;;;;;2.35;39.57;101710.06;4946500;28;6930;-72
2024/01/10 12:11:17;;;;;;;;;;;;;;;2.30;40.84;101711.19;4951187;28;6780;-73
2024/01/10 12:13:43;;;;;;;;;;;;;;;2.26;39.98;101704.06;4960799;28;7150;-72
2024/01/10 12:16:11;;;;;;;;;;;;;;;2.25;40.21;101692.16;4960224;28;6792;-71
2024/01/10 12:18:37;;;;;;;;;;;;;;;2.25;39.66;101694.69;4975618;28;7403;-71
2024/01/10 12:21:03;;;;;;;;;;;;;;;2.24;39.92;101687.84;4962190;28;6848;-72
2024/01/10 12:23:31;;;;;;;;;;;;;;;2.20;39.66;101688.22;4962853;28;7051;-71
2024/01/10 12:25:58;;;;;;;;;;;;;;;2.19;40.39;101687.34;4961278;28;6804;-71
2024/01/10 12:28:24;;;;;;;;;;;;;;;2.22;40.06;101691.81;4959962;28;6780;-74
2024/01/10 12:30:50;;;;;;;;;;;;;;;2.26;40.39;101686.34;4959776;28;7124;-71
2024/01/10 12:33:15;;;;;;;;;;;;;;;2.34;40.14;101684.59;4956472;28;6939;-72
2024/01/10 12:35:42;;;;;;;;;;;;;;;2.43;40.84;101679.59;4962260;28;6771;-71
2024/01/10 12:38:10;;;;;;;;;;;;;;;2.49;40.00;101675.13;4957120;28;6804;-72
2024/01/10 12:40:37;;;;;;;;;;;;;;;2.58;40.09;101676.03;4961974;28;6796;-74
2024/01/10 12:43:04;;;;;;;;;;;;;;;2.67;39.78;101663.44;4960583;28;6955;-73
2024/01/10 12:45:30;;;;;;;;;;;;;;;2.75;40.09;101672.69;4959129;28;8254;-74
2024/01/10 12:47:57;;;;;;;;;;;;;;;2.81;39.87;101668.97;4961414;28;7047;-72
2024/01/10 12:50:25;;;;;;;;;;;;;;;2.89;39.95;101676.56;4959894;28;7244;-71